Time;durP1;ratioP1;P1;durP2;ratioP2;P2;SDS_P1;SDS_P2;PMS_P1;PMS_P2;Temp;Humidity;BMP_temperature;BMP_pressure;BME280_temperature;BME280_humidity;BME280_pressure;Samples;Min_cycle;Max_cycle;Signal;HPM_P1;HPM_P2
2024/01/22 00:00:38;;;;;;;10.90;6.80;;;;;;;-3.01;100.00;102365.76;87224;266;136046;-73
2024/01/22 00:02:40;;;;;;;8.00;5.60;;;;;;;-2.98;100.00;102368.27;87276;270;22583;-73
2024/01/22 00:04:42;;;;;;;5.70;4.90;;;;;;;-2.86;100.00;102366.65;87229;271;136766;-73
2024/01/22 00:06:44;;;;;;;6.80;5.80;;;;;;;-2.76;100.00;102366.83;87485;274;22573;-74
2024/01/22 00:08:46;;;;;;;6.50;5.50;;;;;;;-2.74;100.00;102366.59;87139;276;135762;-74
2024/01/22 00:10:48;;;;;;;7.20;5.40;;;;;;;-2.77;100.00;102360.10;87282;269;22535;-73
2024/01/22 00:12:50;;;;;;;8.70;6.90;;;;;;;-2.82;100.00;102357.84;87193;266;135784;-72
2024/01/22 00:14:54;;;;;;;8.10;5.90;;;;;;;-2.89;100.00;102360.83;87293;271;22556;-74
2024/01/22 00:16:56;;;;;;;9.30;6.60;;;;;;;-2.95;100.00;102352.67;87234;271;135844;-73
2024/01/22 00:18:58;;;;;;;6.80;5.00;;;;;;;-3.00;100.00;102354.94;87308;266;22581;-72
2024/01/22 00:21:01;;;;;;;9.40;5.90;;;;;;;-3.06;100.00;102352.03;87261;274;136204;-74
2024/01/22 00:23:03;;;;;;;9.10;6.70;;;;;;;-3.14;100.00;102349.87;87324;277;22561;-74
2024/01/22 00:25:05;;;;;;;8.60;7.00;;;;;;;-3.22;100.00;102346.80;87257;270;136269;-73
2024/01/22 00:27:07;;;;;;;7.30;5.80;;;;;;;-3.28;100.00;102342.84;87316;269;22575;-74
2024/01/22 00:29:09;;;;;;;8.50;6.30;;;;;;;-3.31;100.00;102340.48;87236;274;136191;-74
2024/01/22 00:31:10;;;;;;;12.50;7.40;;;;;;;-3.32;100.00;102340.66;87271;278;23998;-74
2024/01/22 00:33:12;;;;;;;7.90;6.90;;;;;;;-3.27;100.00;102340.72;87202;277;139229;-74
2024/01/22 00:35:14;;;;;;;8.80;6.20;;;;;;;-3.16;100.00;102343.65;87318;266;22554;-73
2024/01/22 00:37:16;;;;;;;9.40;6.50;;;;;;;-3.09;100.00;102343.25;87145;271;136781;-73
2024/01/22 00:39:18;;;;;;;7.60;5.10;;;;;;;-3.10;100.00;102347.98;87356;269;24017;-72
2024/01/22 00:41:20;;;;;;;8.30;5.70;;;;;;;-3.14;100.00;102349.84;87247;270;136214;-72
2024/01/22 00:43:23;;;;;;;10.00;6.10;;;;;;;-3.15;100.00;102350.76;87245;269;22535;-72
2024/01/22 00:45:25;;;;;;;7.80;5.90;;;;;;;-3.16;100.00;102349.04;87258;269;136216;-73
2024/01/22 00:47:27;;;;;;;7.20;6.50;;;;;;;-3.17;100.00;102346.46;87238;266;22568;-74
2024/01/22 00:49:29;;;;;;;8.40;7.10;;;;;;;-3.18;100.00;102345.64;87393;274;136362;-72
2024/01/22 00:51:33;;;;;;;9.90;7.00;;;;;;;-3.20;100.00;102339.95;87347;269;22680;-71
2024/01/22 00:53:35;;;;;;;10.60;6.30;;;;;;;-3.25;100.00;102344.11;87278;269;137754;-73
2024/01/22 00:55:39;;;;;;;9.00;6.20;;;;;;;-3.29;100.00;102344.42;87454;278;22568;-73
2024/01/22 00:57:40;;;;;;;12.40;6.90;;;;;;;-3.33;100.00;102349.56;87242;274;136550;-72
2024/01/22 00:59:42;;;;;;;9.70;7.00;;;;;;;-3.25;100.00;102349.14;87577;270;22562;-75
2024/01/22 01:01:44;;;;;;;9.30;6.40;;;;;;;-3.18;100.00;102348.23;87208;274;136418;-72
2024/01/22 01:03:46;;;;;;;8.10;6.30;;;;;;;-3.17;100.00;102347.52;87401;271;23706;-73
2024/01/22 01:05:48;;;;;;;8.90;6.50;;;;;;;-3.20;100.00;102346.38;87666;266;136082;-70
2024/01/22 01:07:50;;;;;;;10.00;6.60;;;;;;;-3.19;100.00;102344.61;88289;266;22605;-74
2024/01/22 01:09:52;;;;;;;6.90;6.00;;;;;;;-3.18;100.00;102340.73;88027;266;137945;-72
2024/01/22 01:11:54;;;;;;;8.30;7.30;;;;;;;-3.17;100.00;102338.96;88256;274;22559;-73
2024/01/22 01:13:56;;;;;;;11.30;7.90;;;;;;;-3.13;100.00;102341.13;87947;266;136444;-72
2024/01/22 01:15:58;;;;;;;9.40;7.40;;;;;;;-3.09;100.00;102343.95;87909;266;25082;-70
2024/01/22 01:18:03;;;;;;;11.70;8.10;;;;;;;-3.09;100.00;102344.11;87688;267;23977;-70
2024/01/22 01:20:06;;;;;;;9.40;7.60;;;;;;;-3.10;100.00;102345.91;87738;261;137024;-71
2024/01/22 01:22:08;;;;;;;8.40;7.00;;;;;;;-3.12;100.00;102345.42;87477;275;22685;-73
2024/01/22 01:24:10;;;;;;;9.50;7.40;;;;;;;-3.11;100.00;102347.16;87169;269;136622;-72
2024/01/22 01:26:12;;;;;;;8.90;7.50;;;;;;;-3.10;100.00;102350.06;87430;270;22578;-74
2024/01/22 01:28:14;;;;;;;9.60;7.40;;;;;;;-3.05;100.00;102354.58;87207;270;138194;-71
2024/01/22 01:30:17;;;;;;;11.80;6.90;;;;;;;-2.95;100.00;102355.48;87338;270;22570;-72
2024/01/22 01:32:22;;;;;;;8.90;6.80;;;;;;;-2.90;100.00;102357.23;87161;269;137050;-71
2024/01/22 01:34:24;;;;;;;13.50;9.30;;;;;;;-2.96;100.00;102356.91;87204;271;23997;-71
2024/01/22 01:36:27;;;;;;;8.60;7.40;;;;;;;-3.02;100.00;102352.93;87145;267;136566;-70
2024/01/22 01:38:28;;;;;;;11.00;8.20;;;;;;;-3.10;100.00;102353.72;87241;269;22571;-72
2024/01/22 01:40:30;;;;;;;10.20;7.30;;;;;;;-3.15;100.00;102352.64;87202;266;136449;-71
2024/01/22 01:42:32;;;;;;;12.10;9.00;;;;;;;-3.19;100.00;102358.36;87295;277;22547;-71
2024/01/22 01:44:37;;;;;;;12.90;8.80;;;;;;;-3.21;100.00;102364.17;87157;269;136670;-72
2024/01/22 01:46:39;;;;;;;11.60;8.50;;;;;;;-3.23;100.00;102372.06;87260;266;24001;-73
2024/01/22 01:48:41;;;;;;;11.00;7.70;;;;;;;-3.25;100.00;102372.62;87139;273;136627;-73
2024/01/22 01:50:43;;;;;;;10.90;7.60;;;;;;;-3.21;100.00;102360.67;87478;273;22612;-73
2024/01/22 01:52:45;;;;;;;12.70;8.40;;;;;;;-3.07;100.00;102354.66;87271;271;138615;-72
2024/01/22 01:54:51;;;;;;;11.00;8.80;;;;;;;-2.98;100.00;102347.58;87287;275;25188;-74
2024/01/22 01:56:53;;;;;;;12.30;9.10;;;;;;;-2.99;100.00;102337.34;87275;267;136744;-73
2024/01/22 01:58:55;;;;;;;10.80;8.60;;;;;;;-2.99;100.00;102337.88;87344;273;22576;-73
2024/01/22 02:00:57;;;;;;;10.40;8.40;;;;;;;-3.05;100.00;102338.75;87212;271;138970;-72
2024/01/22 02:03:02;;;;;;;11.70;8.80;;;;;;;-3.14;100.00;102341.14;87371;277;24007;-71
2024/01/22 02:05:05;;;;;;;10.00;8.30;;;;;;;-3.22;100.00;102336.02;87365;270;136562;-72
2024/01/22 02:07:09;;;;;;;12.40;8.40;;;;;;;-3.30;100.00;102336.27;87424;266;22638;-73
2024/01/22 02:09:11;;;;;;;10.50;7.40;;;;;;;-3.35;100.00;102336.10;87166;274;136725;-74
2024/01/22 02:11:13;;;;;;;12.20;9.40;;;;;;;-3.38;100.00;102336.17;87219;274;22586;-74
2024/01/22 02:13:15;;;;;;;11.30;7.00;;;;;;;-3.43;100.00;102337.73;87149;269;136724;-73
2024/01/22 02:15:18;;;;;;;9.60;7.60;;;;;;;-3.43;100.00;102332.88;87297;271;24004;-73
2024/01/22 02:17:20;;;;;;;13.10;7.90;;;;;;;-3.34;100.00;102324.56;87260;274;137237;-72
2024/01/22 02:19:21;;;;;;;9.60;6.70;;;;;;;-3.24;100.00;102328.77;87267;280;24066;-72
2024/01/22 02:21:24;;;;;;;10.10;7.50;;;;;;;-3.19;100.00;102334.02;87287;274;136292;-72
2024/01/22 02:23:26;;;;;;;14.50;9.00;;;;;;;-3.23;100.00;102336.41;87340;274;23900;-71
2024/01/22 02:25:28;;;;;;;8.10;5.80;;;;;;;-3.26;100.00;102334.42;87154;274;137982;-71
2024/01/22 02:27:31;;;;;;;11.20;8.90;;;;;;;-3.30;100.00;102335.42;87278;269;22575;-74
2024/01/22 02:29:32;;;;;;;10.30;7.90;;;;;;;-3.33;100.00;102342.80;87084;269;136781;-74
2024/01/22 02:31:34;;;;;;;10.80;8.20;;;;;;;-3.35;100.00;102348.42;87287;275;22576;-73
2024/01/22 02:33:36;;;;;;;10.30;8.10;;;;;;;-3.37;100.00;102348.66;87233;274;136811;-72
2024/01/22 02:35:38;;;;;;;13.30;10.20;;;;;;;-3.39;100.00;102348.90;87360;262;23786;-73
2024/01/22 02:37:41;;;;;;;11.30;7.70;;;;;;;-3.40;100.00;102355.90;87156;265;136905;-71
2024/01/22 02:39:43;;;;;;;10.70;8.40;;;;;;;-3.38;100.00;102360.55;87425;267;24017;-73
2024/01/22 02:41:46;;;;;;;11.70;8.40;;;;;;;-3.28;100.00;102357.27;87312;274;137230;-72
2024/01/22 02:43:47;;;;;;;10.20;7.40;;;;;;;-3.16;100.00;102356.35;87325;274;22542;-72
2024/01/22 02:45:49;;;;;;;12.40;8.40;;;;;;;-3.10;100.00;102359.28;87225;267;136886;-70
2024/01/22 02:47:51;;;;;;;10.10;8.10;;;;;;;-3.11;100.00;102362.45;87334;269;22558;-73
2024/01/22 02:49:53;;;;;;;13.30;8.90;;;;;;;-3.17;100.00;102359.32;87269;270;137131;-73
2024/01/22 02:51:55;;;;;;;10.10;7.80;;;;;;;-3.20;100.00;102357.17;87308;271;25297;-73
2024/01/22 02:53:56;;;;;;;10.90;8.80;;;;;;;-3.21;100.00;102357.90;87450;278;136366;-72
2024/01/22 02:55:58;;;;;;;10.90;8.10;;;;;;;-3.24;100.00;102357.64;87257;267;22647;-73
2024/01/22 02:58:00;;;;;;;11.10;9.00;;;;;;;-3.28;100.00;102351.70;87217;269;136810;-73
2024/01/22 03:00:05;;;;;;;11.40;8.00;;;;;;;-3.32;100.00;102349.52;87177;277;22740;-71
2024/01/22 03:02:07;;;;;;;11.10;8.70;;;;;;;-3.28;100.00;102349.42;87440;270;22555;-71
2024/01/22 03:04:08;;;;;;;11.60;7.80;;;;;;;-3.16;100.00;102347.83;87156;264;137511;-72
2024/01/22 03:06:10;;;;;;;11.60;8.20;;;;;;;-3.11;100.00;102348.00;87202;274;22641;-73
2024/01/22 03:08:13;;;;;;;11.20;9.10;;;;;;;-3.10;100.00;102347.46;87181;267;137621;-74
2024/01/22 03:10:15;;;;;;;12.90;8.60;;;;;;;-3.16;100.00;102342.59;87241;270;22562;-71
2024/01/22 03:12:17;;;;;;;8.20;6.70;;;;;;;-3.20;100.00;102345.00;87062;271;137459;-73
2024/01/22 03:14:19;;;;;;;10.90;8.60;;;;;;;-3.24;100.00;102339.73;87322;266;22583;-70
2024/01/22 03:16:21;;;;;;;12.80;8.40;;;;;;;-3.28;100.00;102338.13;87104;274;138206;-71
2024/01/22 03:18:23;;;;;;;11.50;8.80;;;;;;;-3.35;100.00;102339.21;87215;278;24076;-72
2024/01/22 03:20:25;;;;;;;12.60;7.70;;;;;;;-3.41;100.00;102339.41;87110;269;137061;-73
2024/01/22 03:22:28;;;;;;;12.80;8.30;;;;;;;-3.34;100.00;102339.68;87348;274;22553;-72
2024/01/22 03:24:29;;;;;;;16.50;8.80;;;;;;;-3.35;100.00;102344.25;87221;269;136878;-72
2024/01/22 03:26:33;;;;;;;18.90;9.70;;;;;;;-3.27;100.00;102346.44;87214;262;23745;-72
2024/01/22 03:28:35;;;;;;;13.90;9.60;;;;;;;-3.28;100.00;102341.77;87074;265;136370;-70
2024/01/22 03:30:37;;;;;;;12.60;9.60;;;;;;;-3.29;100.00;102347.23;87214;268;25348;-72
2024/01/22 03:32:39;;;;;;;15.20;9.70;;;;;;;-3.39;100.00;102350.30;87138;264;136355;-73
2024/01/22 03:34:41;;;;;;;15.60;10.90;;;;;;;-3.47;100.00;102343.93;87243;266;25094;-71
2024/01/22 03:36:43;;;;;;;18.10;10.50;;;;;;;-3.48;100.00;102343.98;86973;268;136669;-70
2024/01/22 03:38:46;;;;;;;18.10;11.20;;;;;;;-3.49;100.00;102343.31;87270;270;26110;-72
2024/01/22 03:40:48;;;;;;;19.60;12.10;;;;;;;-3.42;100.00;102347.27;87089;278;136895;-72
2024/01/22 03:42:49;;;;;;;19.00;11.00;;;;;;;-3.31;100.00;102347.27;87188;275;22557;-73
2024/01/22 03:44:53;;;;;;;19.50;11.50;;;;;;;-3.25;100.00;102352.63;87156;267;136820;-72
2024/01/22 03:46:55;;;;;;;24.50;13.10;;;;;;;-3.22;100.00;102343.52;90099;273;22250;-72
2024/01/22 03:48:58;;;;;;;28.10;13.80;;;;;;;-3.19;100.00;102337.14;87677;266;136553;-74
2024/01/22 03:51:01;;;;;;;14.90;11.10;;;;;;;-3.22;100.00;102330.48;87370;270;22685;-74
2024/01/22 03:53:03;;;;;;;19.40;11.60;;;;;;;-3.26;100.00;102330.08;87104;278;136634;-75
2024/01/22 03:55:07;;;;;;;22.20;12.40;;;;;;;-3.32;100.00;102334.95;87236;270;22579;-72
2024/01/22 03:57:09;;;;;;;20.60;12.40;;;;;;;-3.32;100.00;102332.88;88082;274;138082;-71
2024/01/22 03:59:11;;;;;;;22.30;12.10;;;;;;;-3.21;100.00;102333.73;88474;267;22564;-72
2024/01/22 04:01:21;;;;;;;17.90;11.70;;;;;;;-3.16;100.00;102335.63;87143;278;137586;-74
2024/01/22 04:03:23;;;;;;;16.20;11.00;;;;;;;-3.18;100.00;102340.05;87636;269;22557;-75
2024/01/22 04:05:25;;;;;;;17.60;11.70;;;;;;;-3.22;100.00;102340.72;87103;278;136555;-73
2024/01/22 04:07:27;;;;;;;19.90;11.60;;;;;;;-3.25;100.00;102336.65;87217;274;21614;-74
2024/01/22 04:09:29;;;;;;;18.00;11.30;;;;;;;-3.32;100.00;102342.95;88158;266;138233;-73
2024/01/22 04:11:31;;;;;;;15.40;12.00;;;;;;;-3.38;100.00;102345.58;87228;269;22764;-72
2024/01/22 04:13:32;;;;;;;20.50;12.10;;;;;;;-3.40;100.00;102342.16;87123;278;136691;-73
2024/01/22 04:15:36;;;;;;;16.20;11.10;;;;;;;-3.39;100.00;102345.94;88081;271;25054;-73
2024/01/22 04:17:38;;;;;;;18.20;11.80;;;;;;;-3.35;100.00;102341.13;87124;267;137396;-74
2024/01/22 04:19:42;;;;;;;20.80;9.60;;;;;;;-3.19;100.00;102341.15;87500;269;22564;-74
2024/01/22 04:21:46;;;;;;;12.10;9.00;;;;;;;-2.99;100.00;102340.99;88812;266;137877;-73
2024/01/22 04:23:48;;;;;;;14.50;9.80;;;;;;;-2.86;100.00;102337.79;87934;274;22812;-74
2024/01/22 04:25:50;;;;;;;13.10;9.10;;;;;;;-2.88;100.00;102336.62;87105;274;136379;-73
2024/01/22 04:27:54;;;;;;;12.70;9.70;;;;;;;-2.93;100.00;102339.08;87200;278;22837;-75
2024/01/22 04:29:56;;;;;;;14.40;9.20;;;;;;;-2.98;100.00;102343.40;89884;266;136415;-71
2024/01/22 04:31:58;;;;;;;15.50;10.00;;;;;;;-3.03;100.00;102348.44;87963;278;24001;-72
2024/01/22 04:34:00;;;;;;;14.60;11.10;;;;;;;-3.09;100.00;102345.02;87159;268;136774;-73
2024/01/22 04:36:03;;;;;;;17.10;10.40;;;;;;;-3.15;100.00;102346.21;88470;273;138502;-71
2024/01/22 04:38:05;;;;;;;13.40;8.90;;;;;;;-3.11;100.00;102345.73;88374;266;22591;-74
2024/01/22 04:40:09;;;;;;;18.10;10.60;;;;;;;-3.03;100.00;102347.92;87074;269;137061;-72
2024/01/22 04:42:10;;;;;;;13.20;9.60;;;;;;;-3.09;100.00;102346.91;87187;269;23018;-73
2024/01/22 04:44:12;;;;;;;14.40;9.70;;;;;;;-3.17;100.00;102335.17;86987;270;136350;-73
2024/01/22 04:46:14;;;;;;;15.00;9.00;;;;;;;-3.26;100.00;102329.57;87146;269;22551;-73
2024/01/22 04:48:16;;;;;;;15.70;11.00;;;;;;;-3.31;100.00;102326.39;87061;269;136719;-74
2024/01/22 04:50:18;;;;;;;14.90;9.70;;;;;;;-3.32;100.00;102327.13;87516;269;24039;-74
2024/01/22 04:52:21;;;;;;;17.00;9.40;;;;;;;-3.32;100.00;102326.61;87061;265;136560;-73
2024/01/22 04:54:25;;;;;;;12.90;8.80;;;;;;;-3.26;100.00;102318.60;87588;266;26207;-74
2024/01/22 04:56:27;;;;;;;15.10;8.40;;;;;;;-3.22;100.00;102312.90;87093;266;138779;-73
2024/01/22 04:58:28;;;;;;;13.30;9.30;;;;;;;-3.23;100.00;102307.00;87314;274;22574;-73
2024/01/22 05:00:31;;;;;;;15.10;10.30;;;;;;;-3.30;100.00;102299.23;87240;269;136227;-74
2024/01/22 05:02:34;;;;;;;14.00;10.20;;;;;;;-3.43;100.00;102301.58;87438;270;25060;-71
2024/01/22 05:04:36;;;;;;;15.00;10.20;;;;;;;-3.53;100.00;102307.63;87196;274;136810;-72
2024/01/22 05:06:38;;;;;;;14.50;10.30;;;;;;;-3.62;100.00;102300.79;87241;269;22555;-74
2024/01/22 05:08:40;;;;;;;19.20;9.40;;;;;;;-3.64;100.00;102301.73;87260;270;138854;-75
2024/01/22 05:10:44;;;;;;;14.60;10.40;;;;;;;-3.59;100.00;102305.77;87226;270;24036;-75
2024/01/22 05:12:46;;;;;;;14.00;9.90;;;;;;;-3.51;100.00;102310.35;86979;270;137715;-74
2024/01/22 05:14:48;;;;;;;12.90;8.60;;;;;;;-3.51;100.00;102308.62;87366;269;22679;-75
2024/01/22 05:16:51;;;;;;;15.80;10.10;;;;;;;-3.55;100.00;102308.23;87086;269;136545;-71
2024/01/22 05:18:53;;;;;;;17.40;11.80;;;;;;;-3.54;100.00;102304.36;87165;266;24168;-77
2024/01/22 05:20:56;;;;;;;16.50;11.90;;;;;;;-3.48;100.00;102302.96;88006;266;136902;-78
2024/01/22 05:22:58;;;;;;;13.90;9.90;;;;;;;-3.45;100.00;102312.41;87344;270;22632;-77
2024/01/22 05:24:59;;;;;;;18.00;11.70;;;;;;;-3.39;100.00;102316.92;87183;269;138704;-72
2024/01/22 05:27:03;;;;;;;16.50;10.10;;;;;;;-3.32;100.00;102314.60;87155;274;22608;-76
2024/01/22 05:29:05;;;;;;;20.40;13.80;;;;;;;-3.28;100.00;102313.95;87297;262;138508;-76
2024/01/22 05:31:07;;;;;;;17.90;11.90;;;;;;;-3.31;100.00;102312.30;87116;271;24017;-75
2024/01/22 05:33:08;;;;;;;18.40;12.40;;;;;;;-3.37;100.00;102308.17;87083;269;136959;-73
2024/01/22 05:35:13;;;;;;;18.30;13.00;;;;;;;-3.42;100.00;102306.41;87241;269;22732;-74
2024/01/22 05:37:15;;;;;;;17.60;11.10;;;;;;;-3.46;100.00;102303.76;87197;274;137475;-74
2024/01/22 05:39:17;;;;;;;16.50;12.10;;;;;;;-3.43;100.00;102306.45;87202;267;25082;-71
2024/01/22 05:41:19;;;;;;;15.30;10.80;;;;;;;-3.35;100.00;102307.76;87025;269;138757;-75
2024/01/22 05:43:21;;;;;;;15.90;10.20;;;;;;;-3.27;100.00;102311.86;87288;270;22565;-75
2024/01/22 05:45:26;;;;;;;17.00;12.10;;;;;;;-3.28;100.00;102313.98;87133;270;137613;-66
2024/01/22 05:47:27;;;;;;;16.20;11.60;;;;;;;-3.32;100.00;102314.45;87260;269;22550;-67
2024/01/22 05:49:29;;;;;;;16.40;10.90;;;;;;;-3.38;100.00;102314.61;87163;267;136600;-67
2024/01/22 05:51:31;;;;;;;16.40;11.80;;;;;;;-3.38;100.00;102318.29;87208;271;22577;-63
2024/01/22 05:53:34;;;;;;;16.40;11.50;;;;;;;-3.40;100.00;102312.26;87164;274;136780;-66
2024/01/22 05:55:36;;;;;;;19.20;12.50;;;;;;;-3.34;100.00;102311.36;87305;267;22532;-68
2024/01/22 05:57:38;;;;;;;15.20;10.60;;;;;;;-3.35;100.00;102310.70;86566;267;769479;-65
2024/01/22 05:59:40;;;;;;;20.40;11.90;;;;;;;-3.22;100.00;102307.52;87136;271;22745;-68
2024/01/22 06:01:42;;;;;;;20.70;13.00;;;;;;;-3.19;100.00;102300.61;87097;271;137081;-65
2024/01/22 06:03:43;;;;;;;21.70;12.10;;;;;;;-3.18;100.00;102295.91;87196;271;25191;-68
2024/01/22 06:05:46;;;;;;;18.00;11.40;;;;;;;-3.22;100.00;102295.00;87283;266;136721;-72
2024/01/22 06:07:48;;;;;;;17.30;12.10;;;;;;;-3.32;100.00;102288.70;87196;270;22736;-66
2024/01/22 06:09:50;;;;;;;17.40;12.20;;;;;;;-3.37;100.00;102288.70;87226;269;137540;-65
2024/01/22 06:12:03;;;;;;;19.10;12.40;;;;;;;-3.33;100.00;102282.48;87195;274;137668;-66
2024/01/22 06:14:05;;;;;;;19.00;12.30;;;;;;;-3.28;100.00;102275.88;87482;269;22563;-67
2024/01/22 06:16:11;;;;;;;19.30;12.80;;;;;;;-3.25;100.00;102281.72;87162;270;137457;-68
2024/01/22 06:18:14;;;;;;;17.60;13.20;;;;;;;-3.36;100.00;102286.92;87295;271;22685;-69
2024/01/22 06:20:18;;;;;;;19.10;11.70;;;;;;;-3.41;100.00;102289.02;87237;278;136739;-69
2024/01/22 06:22:20;;;;;;;23.00;14.00;;;;;;;-3.48;100.00;102277.58;87164;268;22563;-65
2024/01/22 06:24:21;;;;;;;19.40;12.50;;;;;;;-3.48;100.00;102277.41;87178;270;139035;-68
2024/01/22 06:26:24;;;;;;;20.20;13.30;;;;;;;-3.36;100.00;102275.78;87289;269;23017;-65
2024/01/22 06:28:29;;;;;;;20.90;12.60;;;;;;;-3.23;100.00;102273.29;87248;267;137947;-65
2024/01/22 06:30:31;;;;;;;19.10;13.20;;;;;;;-3.09;100.00;102274.54;87314;270;22527;-67
2024/01/22 06:32:33;;;;;;;19.50;13.40;;;;;;;-3.16;100.00;102272.87;87179;267;136883;-68
2024/01/22 06:34:36;;;;;;;17.00;12.50;;;;;;;-3.22;100.00;102267.70;87552;269;22563;-66
2024/01/22 06:36:38;;;;;;;17.80;13.00;;;;;;;-3.26;100.00;102263.66;87264;269;137999;-65
2024/01/22 06:38:41;;;;;;;20.30;12.90;;;;;;;-3.28;100.00;102262.16;87493;269;22707;-64
2024/01/22 06:40:44;;;;;;;17.10;12.50;;;;;;;-3.21;100.00;102261.21;87139;270;137367;-67
2024/01/22 06:42:51;;;;;;;19.50;12.90;;;;;;;-3.09;100.00;102262.38;87249;269;25139;-68
2024/01/22 06:44:54;;;;;;;19.20;13.40;;;;;;;-3.02;100.00;102259.86;87289;276;137112;-64
2024/01/22 06:46:56;;;;;;;19.40;15.40;;;;;;;-2.98;100.00;102260.25;87404;271;22565;-64
2024/01/22 06:48:59;;;;;;;18.10;13.60;;;;;;;-2.97;100.00;102264.22;87152;270;137776;-65
2024/01/22 06:51:11;;;;;;;17.90;13.60;;;;;;;-2.99;100.00;102276.80;87264;270;22537;-66
2024/01/22 06:53:13;;;;;;;20.30;13.60;;;;;;;-3.04;100.00;102280.30;87380;271;136666;-65
2024/01/22 06:55:15;;;;;;;17.80;11.70;;;;;;;-3.11;100.00;102278.07;87260;270;22639;-66
2024/01/22 06:57:17;;;;;;;20.80;13.80;;;;;;;-3.06;100.00;102279.32;87262;267;137657;-66
2024/01/22 06:59:20;;;;;;;20.90;14.90;;;;;;;-2.91;100.00;102271.85;87332;267;22628;-75
2024/01/22 07:01:21;;;;;;;19.10;13.00;;;;;;;-2.82;100.00;102276.58;87220;270;138482;-67
2024/01/22 07:03:23;;;;;;;20.20;14.50;;;;;;;-2.82;100.00;102282.13;87292;269;22529;-64
2024/01/22 07:05:26;;;;;;;19.50;13.70;;;;;;;-2.86;100.00;102284.17;87165;273;136720;-63
2024/01/22 07:07:28;;;;;;;19.60;13.90;;;;;;;-2.93;100.00;102281.98;87477;274;23681;-65
2024/01/22 07:09:30;;;;;;;22.50;15.10;;;;;;;-3.00;100.00;102280.31;87131;274;138073;-64
2024/01/22 07:11:32;;;;;;;23.50;15.00;;;;;;;-3.01;100.00;102281.39;87347;269;22498;-63
2024/01/22 07:13:34;;;;;;;21.20;13.50;;;;;;;-2.89;100.00;102287.96;87094;269;139152;-63
2024/01/22 07:15:36;;;;;;;22.30;14.70;;;;;;;-2.71;100.00;102295.50;87155;271;23457;-66
2024/01/22 07:17:39;;;;;;;20.00;14.20;;;;;;;-2.63;100.00;102300.61;87020;269;138431;-65
2024/01/22 07:19:42;;;;;;;20.50;14.00;;;;;;;-2.64;100.00;102299.56;87340;273;24010;-65
2024/01/22 07:21:46;;;;;;;17.80;13.10;;;;;;;-2.65;100.00;102299.83;87267;278;136882;-66
2024/01/22 07:23:48;;;;;;;21.50;14.20;;;;;;;-2.72;100.00;102307.20;87448;266;25718;-65
2024/01/22 07:25:50;;;;;;;21.80;17.10;;;;;;;-2.82;100.00;102316.59;87055;269;136610;-65
2024/01/22 07:27:52;;;;;;;19.60;13.40;;;;;;;-2.82;100.00;102326.16;87079;279;26319;-66
2024/01/22 07:29:54;;;;;;;20.80;14.40;;;;;;;-2.78;100.00;102328.29;87128;270;136695;-63
2024/01/22 07:31:57;;;;;;;21.40;13.90;;;;;;;-2.68;100.00;102322.20;87173;270;22518;-65
2024/01/22 07:33:59;;;;;;;18.50;13.50;;;;;;;-2.53;100.00;102322.71;87298;269;138039;-64
2024/01/22 07:36:03;;;;;;;17.80;12.10;;;;;;;-2.43;100.00;102327.59;87454;274;25681;-66
2024/01/22 07:38:07;;;;;;;19.10;13.70;;;;;;;-2.40;100.00;102330.79;87293;269;23640;-68
2024/01/22 07:40:09;;;;;;;20.40;13.80;;;;;;;-2.46;100.00;102323.34;87124;269;136898;-66
2024/01/22 07:42:11;;;;;;;19.40;13.70;;;;;;;-2.50;100.00;102324.34;87333;278;23772;-64
2024/01/22 07:44:13;;;;;;;18.00;12.20;;;;;;;-2.55;100.00;102324.52;87170;274;137074;-63
2024/01/22 07:46:15;;;;;;;15.70;12.20;;;;;;;-2.56;100.00;102324.55;87228;270;22527;-64
2024/01/22 07:48:17;;;;;;;18.00;12.50;;;;;;;-2.53;100.00;102327.05;87137;274;137004;-67
2024/01/22 07:50:20;;;;;;;16.60;12.00;;;;;;;-2.46;100.00;102329.62;87085;276;22569;-64
2024/01/22 07:52:22;;;;;;;15.80;11.40;;;;;;;-2.36;100.00;102332.02;87474;267;137406;-64
2024/01/22 07:54:24;;;;;;;15.40;12.50;;;;;;;-2.28;100.00;102330.67;87308;270;25146;-66
2024/01/22 07:56:26;;;;;;;19.00;13.40;;;;;;;-2.29;100.00;102327.95;87075;262;136726;-67
2024/01/22 07:58:27;;;;;;;17.50;13.50;;;;;;;-2.31;100.00;102319.80;87260;274;22568;-65
2024/01/22 08:00:29;;;;;;;17.40;12.00;;;;;;;-2.31;100.00;102311.48;87164;274;136973;-67
2024/01/22 08:02:31;;;;;;;21.50;14.20;;;;;;;-2.29;100.00;102308.60;87205;266;24142;-69
2024/01/22 08:04:34;;;;;;;20.50;14.40;;;;;;;-2.25;100.00;102311.75;87055;278;138102;-67
2024/01/22 08:06:36;;;;;;;16.00;11.90;;;;;;;-2.19;100.00;102316.41;87246;270;25759;-65
2024/01/22 08:08:39;;;;;;;18.00;12.70;;;;;;;-2.18;100.00;102314.98;87170;266;136763;-67
2024/01/22 08:10:41;;;;;;;17.50;11.70;;;;;;;-2.16;100.00;102300.82;87277;277;22600;-65
2024/01/22 08:12:43;;;;;;;17.20;12.20;;;;;;;-2.06;100.00;102306.02;87127;270;137433;-67
2024/01/22 08:14:45;;;;;;;25.00;13.70;;;;;;;-2.00;100.00;102302.13;87288;271;23119;-67
2024/01/22 08:16:49;;;;;;;18.20;13.20;;;;;;;-1.98;100.00;102304.13;87095;270;136891;-67
2024/01/22 08:18:51;;;;;;;17.10;13.50;;;;;;;-2.04;100.00;102302.79;87197;278;22618;-67
2024/01/22 08:20:53;;;;;;;16.70;12.80;;;;;;;-2.09;100.00;102300.39;89979;267;137885;-66
2024/01/22 08:22:55;;;;;;;15.80;12.60;;;;;;;-2.16;100.00;102304.98;90100;262;22347;-68
2024/01/22 08:24:57;;;;;;;15.80;12.60;;;;;;;-2.15;100.00;102307.38;89751;266;136451;-73
2024/01/22 08:27:00;;;;;;;17.20;13.60;;;;;;;-2.17;100.00;102309.05;90010;274;22901;-67
2024/01/22 08:29:02;;;;;;;18.10;13.10;;;;;;;-2.25;100.00;102301.84;89883;266;136651;-68
2024/01/22 08:31:03;;;;;;;15.60;11.60;;;;;;;-2.19;100.00;102302.46;90240;270;22422;-65
2024/01/22 08:33:05;;;;;;;15.00;11.80;;;;;;;-2.07;100.00;102298.21;89086;270;138058;-64
2024/01/22 08:35:09;;;;;;;22.30;13.30;;;;;;;-2.00;100.00;102296.02;87252;271;25080;-69
2024/01/22 08:37:12;;;;;;;17.00;11.30;;;;;;;-2.09;100.00;102297.41;87547;271;136742;-66
2024/01/22 08:39:14;;;;;;;13.80;11.90;;;;;;;-2.17;100.00;102298.58;87209;271;22564;-69
2024/01/22 08:41:16;;;;;;;17.40;12.00;;;;;;;-2.22;100.00;102297.35;86889;275;136674;-70
2024/01/22 08:43:17;;;;;;;17.00;13.00;;;;;;;-2.28;100.00;102289.23;87060;278;25229;-69
2024/01/22 08:45:21;;;;;;;16.50;11.40;;;;;;;-2.24;100.00;102285.44;87015;266;137930;-66
2024/01/22 08:47:23;;;;;;;15.70;10.80;;;;;;;-2.05;100.00;102296.05;87303;278;25146;-67
2024/01/22 08:49:25;;;;;;;14.30;11.30;;;;;;;-1.93;100.00;102295.05;86983;274;137470;-64
2024/01/22 08:51:28;;;;;;;13.90;10.30;;;;;;;-1.91;100.00;102285.55;87710;270;22578;-65
2024/01/22 08:53:30;;;;;;;16.20;11.90;;;;;;;-1.92;100.00;102283.16;87060;270;137464;-66
2024/01/22 08:55:32;;;;;;;19.50;11.80;;;;;;;-1.90;100.00;102280.29;87009;270;22652;-68
2024/01/22 08:57:34;;;;;;;19.70;13.00;;;;;;;-1.87;100.00;102270.94;87191;267;138062;-66
2024/01/22 08:59:36;;;;;;;18.40;12.30;;;;;;;-1.78;100.00;102269.18;87121;274;23722;-68
2024/01/22 09:01:38;;;;;;;14.90;10.70;;;;;;;-1.86;100.00;102263.73;87877;270;137562;-66
2024/01/22 09:03:40;;;;;;;13.90;9.90;;;;;;;-1.99;100.00;102260.42;87149;277;22571;-66
2024/01/22 09:06:23;;;;;;;16.30;11.30;;;;;;;-2.00;100.00;102258.20;87213;269;137447;-65
2024/01/22 09:08:25;;;;;;;11.80;9.60;;;;;;;-1.92;100.00;102245.02;87021;269;139688;-67
2024/01/22 09:10:28;;;;;;;13.50;9.80;;;;;;;-1.93;100.00;102237.58;87092;278;23767;-67
2024/01/22 09:12:30;;;;;;;14.50;10.50;;;;;;;-2.00;100.00;102237.99;87104;271;136293;-66
2024/01/22 09:14:32;;;;;;;14.30;10.10;;;;;;;-2.04;100.00;102235.89;87159;266;22576;-66
2024/01/22 09:16:34;;;;;;;13.40;9.70;;;;;;;-2.07;100.00;102226.27;86867;273;136544;-64